Time;durP1;ratioP1;P1;durP2;ratioP2;P2;SDS_P1;SDS_P2;PMS_P1;PMS_P2;Temp;Humidity;BMP_temperature;BMP_pressure;BME280_temperature;BME280_humidity;BME280_pressure;Samples;Min_cycle;Max_cycle;Signal;HPM_P1;HPM_P2
2021/06/29 00:01:23;;;;;;;7.83;2.50;;;16.70;99.90;;;;;;4993265;28;20223;-83
2021/06/29 00:03:48;;;;;;;11.53;3.23;;;16.60;99.90;;;;;;5012330;28;20253;-85
2021/06/29 00:06:14;;;;;;;8.30;2.93;;;16.50;99.90;;;;;;5010084;28;20215;-82
2021/06/29 00:08:40;;;;;;;9.57;2.67;;;16.50;99.90;;;;;;5011899;28;20245;-82
2021/06/29 00:11:06;;;;;;;9.73;3.60;;;16.50;99.90;;;;;;4996412;28;20219;-82
2021/06/29 00:13:32;;;;;;;8.37;2.60;;;16.50;99.90;;;;;;4995131;28;20221;-83
2021/06/29 00:15:57;;;;;;;15.67;3.20;;;16.50;99.90;;;;;;4991294;28;20233;-82
2021/06/29 00:18:23;;;;;;;10.67;3.57;;;16.60;99.90;;;;;;5011613;28;20322;-82
2021/06/29 00:20:49;;;;;;;8.80;3.30;;;16.60;99.90;;;;;;4996043;28;20282;-83
2021/06/29 00:23:15;;;;;;;12.77;3.20;;;16.70;99.90;;;;;;5011043;28;20219;-85
2021/06/29 00:25:41;;;;;;;17.60;4.40;;;16.80;99.90;;;;;;5008261;28;20234;-83
2021/06/29 00:28:07;;;;;;;11.87;4.30;;;16.80;99.90;;;;;;5007752;28;20323;-84
2021/06/29 00:30:32;;;;;;;15.47;3.13;;;16.70;99.90;;;;;;5007277;28;20616;-82
2021/06/29 00:32:58;;;;;;;12.70;3.20;;;16.70;99.90;;;;;;4993160;28;20195;-82
2021/06/29 00:35:24;;;;;;;16.83;2.90;;;16.70;99.90;;;;;;5009159;28;20195;-84
2021/06/29 00:37:50;;;;;;;7.00;2.60;;;16.70;99.90;;;;;;5006075;28;20221;-83
2021/06/29 00:40:16;;;;;;;12.17;4.07;;;16.70;99.90;;;;;;5019584;28;21204;-84
2021/06/29 00:42:42;;;;;;;11.27;3.30;;;16.70;99.90;;;;;;5003375;28;20210;-83
2021/06/29 00:45:10;;;;;;;11.93;2.60;;;16.80;99.90;;;;;;5004199;28;20234;-84
2021/06/29 00:47:36;;;;;;;9.60;2.83;;;16.80;99.90;;;;;;5006724;28;20186;-83
2021/06/29 00:50:03;;;;;;;14.10;3.20;;;16.70;99.90;;;;;;5024588;28;20261;-83
2021/06/29 00:52:29;;;;;;;19.63;3.17;;;16.70;99.90;;;;;;5008993;28;20313;-84
2021/06/29 00:54:56;;;;;;;13.00;3.27;;;16.80;99.90;;;;;;5009019;28;20737;-84
2021/06/29 00:57:21;;;;;;;8.83;2.70;;;16.80;99.90;;;;;;5009403;28;20235;-84
2021/06/29 00:59:47;;;;;;;11.00;3.57;;;16.80;99.90;;;;;;4989425;28;20186;-83
2021/06/29 01:02:13;;;;;;;7.53;3.13;;;16.80;99.90;;;;;;4992973;28;20317;-84
2021/06/29 01:04:41;;;;;;;10.67;2.77;;;16.80;99.90;;;;;;5005145;28;20241;-83
2021/06/29 01:07:10;;;;;;;13.50;3.17;;;16.90;99.90;;;;;;5021159;28;20221;-82
2021/06/29 01:09:38;;;;;;;10.93;3.73;;;16.90;99.90;;;;;;5006995;28;20221;-83
2021/06/29 01:12:05;;;;;;;7.83;3.20;;;16.80;99.90;;;;;;5008507;28;20577;-83
2021/06/29 01:14:31;;;;;;;13.73;3.63;;;16.90;99.90;;;;;;4977754;28;20191;-83
2021/06/29 01:16:57;;;;;;;7.23;3.30;;;16.90;99.90;;;;;;5008665;28;20230;-82
2021/06/29 01:19:32;;;;;;;15.20;3.20;;;16.80;99.90;;;;;;5010613;28;20306;-83
2021/06/29 01:21:59;;;;;;;5.33;2.47;;;16.80;99.90;;;;;;4996793;28;20229;-82
2021/06/29 01:24:29;;;;;;;18.93;3.87;;;16.80;99.90;;;;;;5007960;28;20626;-82
2021/06/29 01:32:14;;;;;;;7.57;3.37;;;16.90;99.90;;;;;;5010736;28;20275;-84
2021/06/29 01:34:40;;;;;;;15.23;3.20;;;16.90;99.90;;;;;;5010361;28;20219;-83
2021/06/29 01:37:06;;;;;;;7.37;3.10;;;17.00;99.90;;;;;;4991638;28;20223;-83
2021/06/29 01:39:32;;;;;;;11.27;3.03;;;16.90;99.90;;;;;;5008148;28;20211;-85
2021/06/29 01:41:57;;;;;;;10.97;3.20;;;16.90;99.90;;;;;;5009127;28;20248;-82
2021/06/29 01:44:29;;;;;;;13.53;2.13;;;17.00;99.90;;;;;;4976932;28;20689;-83
2021/06/29 01:46:56;;;;;;;12.47;3.20;;;17.00;99.90;;;;;;4995116;28;20222;-84
2021/06/29 01:49:28;;;;;;;4.57;2.43;;;17.00;99.90;;;;;;5009488;28;20223;-82
2021/06/29 01:51:55;;;;;;;9.10;2.70;;;17.00;99.90;;;;;;5010666;28;20230;-82
2021/06/29 01:54:22;;;;;;;13.67;3.43;;;16.90;99.90;;;;;;5012302;28;21304;-84
2021/06/29 01:56:49;;;;;;;4.97;2.47;;;16.90;99.90;;;;;;5013458;28;20203;-84
2021/06/29 01:59:20;;;;;;;5.73;2.87;;;16.90;99.90;;;;;;4998373;28;20193;-84
2021/06/29 02:01:46;;;;;;;10.30;3.90;;;17.00;99.90;;;;;;5013744;28;20298;-82
2021/06/29 02:04:12;;;;;;;7.47;3.17;;;16.90;99.90;;;;;;5014940;28;20236;-83
2021/06/29 02:06:40;;;;;;;11.07;3.93;;;16.90;99.90;;;;;;5010531;28;20230;-84
2021/06/29 02:09:10;;;;;;;8.20;3.03;;;16.90;99.90;;;;;;5024789;28;20370;-86
2021/06/29 02:11:37;;;;;;;12.63;3.23;;;16.90;99.90;;;;;;4992598;28;20191;-86
2021/06/29 02:14:04;;;;;;;9.23;3.00;;;16.90;99.90;;;;;;5009980;28;20237;-85
2021/06/29 02:16:29;;;;;;;7.27;2.80;;;16.80;99.90;;;;;;5011704;28;20219;-85
2021/06/29 02:18:55;;;;;;;12.93;4.20;;;16.90;99.90;;;;;;4995081;28;21007;-83
2021/06/29 02:21:21;;;;;;;9.17;2.87;;;16.90;99.90;;;;;;4996691;28;20246;-82
2021/06/29 02:23:47;;;;;;;8.60;2.97;;;16.90;99.90;;;;;;5029419;28;20188;-85
2021/06/29 02:26:12;;;;;;;8.67;3.33;;;16.90;99.90;;;;;;5013579;28;20217;-82
2021/06/29 02:28:38;;;;;;;15.23;3.83;;;16.90;99.90;;;;;;5012336;28;20215;-84
2021/06/29 02:31:04;;;;;;;15.73;3.57;;;16.80;99.90;;;;;;5011548;28;20225;-83
2021/06/29 02:33:30;;;;;;;7.10;3.40;;;16.80;99.90;;;;;;5012704;28;20214;-82
2021/06/29 02:35:55;;;;;;;11.17;3.77;;;16.80;99.90;;;;;;4997728;28;20542;-83
2021/06/29 02:38:25;;;;;;;10.37;3.67;;;16.80;99.90;;;;;;4983041;28;20198;-82
2021/06/29 02:40:51;;;;;;;7.20;2.07;;;16.80;99.90;;;;;;4997851;28;20297;-82
2021/06/29 02:43:17;;;;;;;3.93;2.40;;;16.90;99.90;;;;;;4996885;28;20678;-81
2021/06/29 02:45:44;;;;;;;5.50;2.67;;;16.90;99.90;;;;;;5013295;28;21081;-81
2021/06/29 02:48:10;;;;;;;5.03;2.93;;;16.80;99.90;;;;;;5012302;28;20227;-81
2021/06/29 02:50:36;;;;;;;9.40;2.87;;;16.80;99.90;;;;;;5013365;28;20222;-82
2021/06/29 02:53:02;;;;;;;5.60;2.53;;;16.80;99.90;;;;;;5011608;28;20223;-83
2021/06/29 02:55:27;;;;;;;17.03;3.43;;;16.80;99.90;;;;;;5009847;28;20219;-82
2021/06/29 02:57:53;;;;;;;6.57;2.90;;;16.80;99.90;;;;;;5011750;28;20333;-83
2021/06/29 03:00:20;;;;;;;11.13;3.57;;;16.80;99.90;;;;;;5012372;28;20276;-83
2021/06/29 03:02:47;;;;;;;7.17;3.00;;;16.80;99.90;;;;;;5014276;28;20192;-82
2021/06/29 03:05:14;;;;;;;9.37;3.40;;;16.70;99.90;;;;;;5027753;28;20276;-83
2021/06/29 03:07:40;;;;;;;8.40;3.13;;;16.70;99.90;;;;;;5011758;28;20251;-84
2021/06/29 03:10:07;;;;;;;11.00;3.13;;;16.80;99.90;;;;;;5013839;28;20329;-83
2021/06/29 03:12:33;;;;;;;7.77;3.13;;;16.80;99.90;;;;;;5013352;28;20229;-84
2021/06/29 03:15:01;;;;;;;9.00;3.37;;;16.80;99.90;;;;;;5012341;28;20278;-84
2021/06/29 03:17:28;;;;;;;5.03;3.20;;;16.70;99.90;;;;;;5028225;28;20183;-83
2021/06/29 03:19:55;;;;;;;4.37;2.73;;;16.70;99.90;;;;;;5010171;28;20334;-82
2021/06/29 03:22:21;;;;;;;6.07;3.57;;;16.70;99.90;;;;;;5012647;28;20609;-83
2021/06/29 03:24:48;;;;;;;7.80;3.83;;;16.70;99.90;;;;;;5013372;28;20223;-84
2021/06/29 03:27:14;;;;;;;9.93;3.00;;;16.70;99.90;;;;;;5012089;28;20222;-81
2021/06/29 03:29:40;;;;;;;9.80;3.13;;;16.70;99.90;;;;;;5010304;28;20187;-83
2021/06/29 03:32:06;;;;;;;8.37;3.00;;;16.70;99.90;;;;;;5012724;28;20238;-81
2021/06/29 03:34:32;;;;;;;3.10;2.30;;;16.60;99.90;;;;;;5013453;28;20254;-82
2021/06/29 03:37:01;;;;;;;3.50;2.70;;;16.60;99.90;;;;;;5012425;28;20326;-85
2021/06/29 03:39:28;;;;;;;9.80;4.57;;;16.60;99.90;;;;;;4992635;28;20222;-83
2021/06/29 03:41:54;;;;;;;8.83;3.67;;;16.60;99.90;;;;;;5010891;28;20182;-82
2021/06/29 03:44:19;;;;;;;13.27;3.20;;;16.60;99.90;;;;;;5028503;28;20713;-81
2021/06/29 03:46:45;;;;;;;13.00;3.40;;;16.60;99.90;;;;;;4993256;28;20571;-84
2021/06/29 03:49:11;;;;;;;5.27;3.40;;;16.60;99.90;;;;;;5012080;28;20210;-82
2021/06/29 03:51:37;;;;;;;6.57;3.00;;;16.50;99.90;;;;;;5011271;28;20341;-83
2021/06/29 03:54:04;;;;;;;3.80;3.23;;;16.60;99.90;;;;;;5026460;28;20202;-83
2021/06/29 03:56:32;;;;;;;6.00;2.73;;;16.60;99.90;;;;;;5025616;28;20187;-82
2021/06/29 03:59:00;;;;;;;6.67;3.13;;;16.50;99.90;;;;;;4995801;28;20245;-83
2021/06/29 04:01:28;;;;;;;6.77;3.80;;;16.50;99.90;;;;;;5009724;28;20215;-82
2021/06/29 04:03:54;;;;;;;13.90;3.17;;;16.50;99.90;;;;;;5010627;28;20231;-82
2021/06/29 04:06:24;;;;;;;6.70;3.17;;;16.50;99.90;;;;;;5011381;28;20285;-82
2021/06/29 04:08:51;;;;;;;4.70;3.27;;;16.40;99.90;;;;;;5010810;28;20207;-83
2021/06/29 04:11:17;;;;;;;9.20;3.03;;;16.50;99.90;;;;;;5013906;28;20253;-83
2021/06/29 04:13:43;;;;;;;15.67;3.47;;;16.50;99.90;;;;;;5010396;28;20746;-82
2021/06/29 04:16:09;;;;;;;10.47;3.27;;;16.50;99.90;;;;;;5007330;28;20223;-82
2021/06/29 04:18:35;;;;;;;9.83;3.73;;;16.50;99.90;;;;;;5026491;28;21265;-83
2021/06/29 04:21:00;;;;;;;6.03;3.40;;;16.50;99.90;;;;;;4992078;28;20194;-83
2021/06/29 04:23:26;;;;;;;13.43;3.67;;;16.50;99.90;;;;;;5006428;28;20293;-83
2021/06/29 04:25:52;;;;;;;6.40;3.30;;;16.50;99.90;;;;;;5008859;28;20712;-83
2021/06/29 04:28:18;;;;;;;9.03;3.43;;;16.50;99.90;;;;;;5005880;28;20929;-83
2021/06/29 04:30:43;;;;;;;7.03;3.50;;;16.50;99.90;;;;;;5010055;28;20573;-83
2021/06/29 04:33:09;;;;;;;11.03;4.13;;;16.50;99.90;;;;;;5011677;28;20632;-84
2021/06/29 04:35:35;;;;;;;6.63;3.50;;;16.50;99.90;;;;;;4993779;28;21201;-83
2021/06/29 04:38:00;;;;;;;8.27;3.40;;;16.50;99.90;;;;;;5008839;28;20219;-82
2021/06/29 04:40:26;;;;;;;9.00;3.03;;;16.50;99.90;;;;;;5011526;28;20558;-82
2021/06/29 04:42:52;;;;;;;6.60;3.40;;;16.60;99.90;;;;;;5013222;28;20310;-85
2021/06/29 04:45:18;;;;;;;6.23;3.80;;;16.50;99.90;;;;;;5008669;28;20234;-83
2021/06/29 04:47:47;;;;;;;11.30;4.00;;;16.60;99.90;;;;;;4991249;28;20194;-86
2021/06/29 04:50:17;;;;;;;9.67;3.27;;;16.60;99.90;;;;;;5008164;28;20756;-84
2021/06/29 04:52:43;;;;;;;4.80;3.57;;;16.50;99.90;;;;;;5010028;28;20313;-83
2021/06/29 04:55:10;;;;;;;9.63;3.80;;;16.60;99.90;;;;;;5011550;28;20222;-83
2021/06/29 04:57:36;;;;;;;7.97;4.37;;;16.60;99.90;;;;;;5010669;28;20223;-85
2021/06/29 05:00:07;;;;;;;8.33;3.50;;;16.60;99.90;;;;;;5010876;28;20202;-83
2021/06/29 05:02:33;;;;;;;12.73;4.33;;;16.70;99.90;;;;;;5013588;28;20185;-84
2021/06/29 05:04:59;;;;;;;10.47;3.83;;;16.70;99.90;;;;;;4995488;28;20603;-83
2021/06/29 05:07:25;;;;;;;12.50;4.17;;;16.70;99.90;;;;;;5009806;28;20221;-83
2021/06/29 05:09:51;;;;;;;12.43;4.07;;;16.70;99.90;;;;;;5028377;28;20211;-85
2021/06/29 05:12:17;;;;;;;9.43;3.70;;;16.70;99.90;;;;;;5010723;28;20219;-84
2021/06/29 05:14:43;;;;;;;12.63;3.63;;;16.70;99.90;;;;;;5013116;28;20653;-83
2021/06/29 05:17:09;;;;;;;7.70;3.00;;;16.70;99.90;;;;;;4992333;28;20217;-85
2021/06/29 05:19:34;;;;;;;13.23;3.27;;;16.80;99.90;;;;;;5026902;28;20218;-84
2021/06/29 05:22:00;;;;;;;6.80;3.00;;;16.80;99.90;;;;;;5010252;28;21256;-82
2021/06/29 05:24:26;;;;;;;11.47;4.03;;;16.80;99.90;;;;;;5029115;28;20785;-84
2021/06/29 05:26:52;;;;;;;14.37;3.27;;;16.80;99.90;;;;;;5013102;28;20191;-85
2021/06/29 05:29:18;;;;;;;19.53;4.37;;;16.70;99.90;;;;;;5015113;28;20198;-85
2021/06/29 05:31:44;;;;;;;7.20;4.20;;;16.80;99.90;;;;;;5014303;28;20210;-85
2021/06/29 05:34:10;;;;;;;6.87;3.40;;;16.80;99.90;;;;;;5012157;28;20215;-84
2021/06/29 05:36:36;;;;;;;8.43;3.57;;;16.80;99.90;;;;;;4998428;28;20214;-83
2021/06/29 05:39:04;;;;;;;8.67;3.30;;;16.80;99.90;;;;;;5013308;28;20191;-84
2021/06/29 05:41:30;;;;;;;9.10;2.63;;;16.80;99.90;;;;;;5014346;28;20253;-86
2021/06/29 05:43:56;;;;;;;9.33;3.87;;;16.80;99.90;;;;;;5014787;28;20717;-85
2021/06/29 05:46:22;;;;;;;6.67;2.67;;;16.80;99.90;;;;;;5015724;28;20242;-83
2021/06/29 05:48:50;;;;;;;11.50;3.67;;;16.70;99.90;;;;;;5028976;28;20338;-83
2021/06/29 05:51:16;;;;;;;13.37;3.97;;;16.70;99.90;;;;;;5014488;28;20231;-85
2021/06/29 05:53:41;;;;;;;9.37;4.57;;;16.70;99.90;;;;;;5014141;28;20206;-84
2021/06/29 05:56:10;;;;;;;12.10;4.00;;;16.70;99.90;;;;;;5011280;28;20243;-86
2021/06/29 05:58:37;;;;;;;12.67;3.53;;;16.70;99.90;;;;;;5009757;28;20243;-85
2021/06/29 06:01:04;;;;;;;10.93;3.23;;;16.70;99.90;;;;;;5011564;28;20234;-85
2021/06/29 06:03:29;;;;;;;7.57;2.73;;;16.80;99.90;;;;;;5011020;28;20270;-84
2021/06/29 06:05:55;;;;;;;15.20;3.87;;;16.90;99.90;;;;;;5007416;28;20622;-84
2021/06/29 06:08:21;;;;;;;9.90;4.07;;;17.00;99.90;;;;;;5008390;28;20701;-83
2021/06/29 06:10:47;;;;;;;6.60;4.20;;;17.00;99.90;;;;;;4973987;28;20210;-82
2021/06/29 06:13:12;;;;;;;9.70;3.33;;;16.90;99.90;;;;;;4991023;28;20246;-83
2021/06/29 06:15:39;;;;;;;12.13;3.43;;;16.90;99.90;;;;;;4989291;28;20247;-83
2021/06/29 06:18:06;;;;;;;8.77;3.80;;;16.90;99.90;;;;;;5004847;28;26691;-82
2021/06/29 06:20:33;;;;;;;8.57;4.10;;;16.90;99.90;;;;;;5011042;28;20187;-83
2021/06/29 06:22:59;;;;;;;12.27;4.40;;;16.90;99.90;;;;;;4990717;28;20279;-84
2021/06/29 06:25:25;;;;;;;5.93;3.53;;;16.90;99.90;;;;;;5006035;28;20624;-83
2021/06/29 06:27:51;;;;;;;7.47;3.33;;;16.90;99.90;;;;;;4992590;28;20632;-82
2021/06/29 06:30:19;;;;;;;8.73;2.97;;;16.90;99.90;;;;;;5010976;28;20237;-84
2021/06/29 06:32:44;;;;;;;9.17;2.93;;;16.80;99.90;;;;;;5014559;28;20195;-83
2021/06/29 06:35:11;;;;;;;12.23;3.77;;;16.90;99.90;;;;;;4995385;28;20558;-82
2021/06/29 06:37:37;;;;;;;8.70;3.87;;;16.80;99.90;;;;;;5011972;28;20536;-83
2021/06/29 06:40:05;;;;;;;13.10;3.63;;;16.90;99.90;;;;;;5011590;28;20214;-82
2021/06/29 06:42:31;;;;;;;7.77;4.97;;;17.00;99.90;;;;;;5027716;28;20234;-82
2021/06/29 06:44:57;;;;;;;10.27;5.10;;;17.00;99.90;;;;;;5010189;28;20214;-82
2021/06/29 06:47:23;;;;;;;5.10;3.27;;;17.10;99.90;;;;;;4996779;28;20195;-82
2021/06/29 06:49:49;;;;;;;11.80;3.60;;;17.20;99.90;;;;;;5013814;28;20210;-84
2021/06/29 06:52:16;;;;;;;8.33;3.83;;;17.20;99.90;;;;;;5009803;28;20230;-82
2021/06/29 06:54:41;;;;;;;9.30;4.00;;;17.20;99.90;;;;;;5029885;28;20237;-85
2021/06/29 06:57:08;;;;;;;7.40;3.77;;;17.30;99.90;;;;;;4998380;28;20243;-83
2021/06/29 06:59:34;;;;;;;7.83;3.53;;;17.50;99.90;;;;;;5014309;28;20203;-84
2021/06/29 07:02:00;;;;;;;9.57;2.90;;;17.70;99.90;;;;;;4996771;28;20219;-83
2021/06/29 07:04:26;;;;;;;8.67;3.60;;;17.80;99.90;;;;;;4998867;28;20720;-83
2021/06/29 07:06:52;;;;;;;6.33;3.57;;;18.00;99.90;;;;;;5013585;28;20222;-83
2021/06/29 07:09:17;;;;;;;9.53;3.73;;;18.00;99.90;;;;;;5028440;28;20233;-83
2021/06/29 07:11:44;;;;;;;6.73;3.40;;;18.20;99.90;;;;;;4993261;28;20747;-83
2021/06/29 07:14:10;;;;;;;5.70;3.83;;;18.30;99.90;;;;;;5010478;28;20309;-83
2021/06/29 07:16:37;;;;;;;16.23;4.03;;;18.10;99.90;;;;;;5014403;28;20313;-82
2021/06/29 07:19:03;;;;;;;7.40;3.30;;;17.90;99.90;;;;;;5011800;28;20214;-84
2021/06/29 07:21:28;;;;;;;10.47;3.73;;;17.90;99.90;;;;;;5012807;28;20561;-84
2021/06/29 07:23:54;;;;;;;7.63;3.53;;;17.90;99.90;;;;;;5007486;28;20313;-86
2021/06/29 07:26:21;;;;;;;10.47;4.03;;;17.90;99.90;;;;;;5006584;28;20211;-86
2021/06/29 07:28:48;;;;;;;12.07;3.67;;;17.70;99.90;;;;;;5011183;28;20215;-91
2021/06/29 07:31:16;;;;;;;14.83;4.87;;;17.60;99.90;;;;;;5018232;28;20305;-88
2021/06/29 07:33:41;;;;;;;7.87;3.07;;;17.70;99.90;;;;;;5015602;28;20219;-89
2021/06/29 07:36:07;;;;;;;7.40;3.30;;;17.80;99.90;;;;;;5012277;28;20284;-88
2021/06/29 07:38:33;;;;;;;5.20;3.23;;;17.90;99.90;;;;;;4999199;28;20198;-86
2021/06/29 07:40:59;;;;;;;10.60;3.50;;;17.80;99.90;;;;;;4998720;28;21205;-88
2021/06/29 07:43:25;;;;;;;10.93;5.73;;;17.70;99.90;;;;;;5012553;28;20674;-87
2021/06/29 07:45:50;;;;;;;13.07;3.73;;;17.50;99.90;;;;;;5030589;28;20237;-87
2021/06/29 07:48:16;;;;;;;7.03;4.30;;;17.50;99.90;;;;;;4997734;28;20720;-87
2021/06/29 07:50:42;;;;;;;8.50;4.43;;;17.60;99.90;;;;;;5012737;28;20245;-86
2021/06/29 07:53:08;;;;;;;10.57;5.07;;;17.70;99.90;;;;;;5013990;28;20222;-88
2021/06/29 07:55:34;;;;;;;9.63;3.63;;;17.80;99.90;;;;;;5013244;28;20242;-88
2021/06/29 07:57:59;;;;;;;10.57;3.07;;;17.70;99.90;;;;;;4997341;28;21280;-87
2021/06/29 08:00:26;;;;;;;8.90;4.00;;;17.60;99.90;;;;;;4995333;28;20222;-88
2021/06/29 08:02:51;;;;;;;9.80;3.27;;;17.70;99.90;;;;;;4995369;28;20184;-89
2021/06/29 08:05:18;;;;;;;16.20;4.80;;;17.50;99.90;;;;;;5030909;28;20275;-88
2021/06/29 08:07:44;;;;;;;11.30;4.40;;;17.40;99.90;;;;;;5013482;28;20225;-89
2021/06/29 08:10:10;;;;;;;10.10;4.00;;;17.40;99.90;;;;;;5010539;28;20562;-87
2021/06/29 08:12:36;;;;;;;15.10;3.97;;;17.50;99.90;;;;;;5027983;28;20699;-85
2021/06/29 08:15:03;;;;;;;14.80;3.77;;;17.60;99.90;;;;;;4995735;28;20194;-88
2021/06/29 08:17:29;;;;;;;16.83;5.13;;;17.60;99.90;;;;;;5011522;28;20195;-88
2021/06/29 08:19:55;;;;;;;9.97;4.27;;;17.80;99.90;;;;;;4996861;28;21235;-85
2021/06/29 08:22:22;;;;;;;12.03;3.93;;;17.80;99.90;;;;;;5014207;28;20207;-87
2021/06/29 08:24:48;;;;;;;6.30;3.47;;;17.80;99.90;;;;;;5013715;28;20223;-86
2021/06/29 08:27:14;;;;;;;7.33;3.70;;;17.90;99.90;;;;;;4979657;28;20231;-86
2021/06/29 08:29:44;;;;;;;9.43;3.70;;;17.90;99.90;;;;;;5013234;28;20210;-86
2021/06/29 08:32:11;;;;;;;16.13;4.37;;;18.00;99.90;;;;;;5011470;28;21283;-88
2021/06/29 08:34:37;;;;;;;8.43;3.80;;;18.00;99.90;;;;;;5009976;28;20315;-87
2021/06/29 08:37:03;;;;;;;8.53;3.57;;;18.00;99.90;;;;;;4994667;28;20227;-88
2021/06/29 08:39:29;;;;;;;12.70;4.03;;;18.00;99.90;;;;;;5010163;28;20314;-87
2021/06/29 08:41:55;;;;;;;8.73;4.33;;;18.00;99.90;;;;;;5027493;28;20274;-90
2021/06/29 08:44:22;;;;;;;4.80;2.73;;;18.00;99.90;;;;;;5010865;28;20641;-87
2021/06/29 08:46:48;;;;;;;8.40;3.20;;;18.00;99.90;;;;;;5012767;28;20321;-88
2021/06/29 08:49:13;;;;;;;13.23;4.20;;;18.00;99.90;;;;;;4994232;28;20686;-89
2021/06/29 08:51:39;;;;;;;17.47;4.50;;;18.00;99.90;;;;;;4996430;28;20248;-88
2021/06/29 08:54:06;;;;;;;7.13;4.03;;;18.00;99.90;;;;;;5010688;28;21353;-87
2021/06/29 08:56:32;;;;;;;8.63;5.00;;;17.90;99.90;;;;;;5011246;28;20195;-86
2021/06/29 08:59:00;;;;;;;10.23;3.83;;;18.00;99.90;;;;;;4997738;28;21073;-89
2021/06/29 09:01:29;;;;;;;11.97;4.17;;;17.90;99.90;;;;;;4981042;28;20222;-88
2021/06/29 09:03:56;;;;;;;7.13;3.40;;;17.80;99.90;;;;;;5014549;28;20281;-87
2021/06/29 09:06:35;;;;;;;12.10;4.73;;;17.80;99.90;;;;;;5017014;28;20262;-88
2021/06/29 09:09:28;;;;;;;18.77;4.77;;;17.80;99.90;;;;;;5016199;28;20280;-89
2021/06/29 09:11:55;;;;;;;12.93;4.03;;;17.90;99.90;;;;;;5014728;28;20723;-89
2021/06/29 09:14:31;;;;;;;11.00;3.90;;;17.90;99.90;;;;;;5001147;28;20189;-87
2021/06/29 09:17:19;;;;;;;7.03;4.10;;;17.90;99.90;;;;;;5030371;28;20676;-90
2021/06/29 09:19:46;;;;;;;10.47;3.73;;;17.90;99.90;;;;;;5016326;28;20229;-91
2021/06/29 09:22:24;;;;;;;13.87;4.10;;;17.80;99.90;;;;;;5032291;28;20216;-89
2021/06/29 09:24:50;;;;;;;18.53;4.33;;;17.60;99.90;;;;;;5015567;28;20239;-89
2021/06/29 09:27:46;;;;;;;10.47;3.77;;;17.40;99.90;;;;;;5001293;28;20229;-89
2021/06/29 09:30:40;;;;;;;16.20;4.57;;;17.40;99.90;;;;;;5012918;28;20731;-88
2021/06/29 09:33:11;;;;;;;7.87;3.50;;;17.30;99.90;;;;;;5015418;28;20258;-87
2021/06/29 09:35:39;;;;;;;12.67;5.10;;;17.20;99.90;;;;;;5034164;28;20218;-88
2021/06/29 09:38:07;;;;;;;17.23;5.03;;;17.40;99.90;;;;;;5014923;28;20276;-87
2021/06/29 09:40:34;;;;;;;8.63;4.57;;;17.30;99.90;;;;;;5014436;28;20221;-89
2021/06/29 09:43:15;;;;;;;7.10;3.60;;;17.40;99.90;;;;;;5016247;28;20301;-86
2021/06/29 09:45:47;;;;;;;10.77;4.20;;;17.40;99.90;;;;;;5013174;28;20235;-86
2021/06/29 09:48:15;;;;;;;9.00;3.73;;;17.40;99.90;;;;;;5030963;28;20229;-86
2021/06/29 09:50:53;;;;;;;9.07;3.87;;;17.40;99.90;;;;;;4996074;28;20197;-85
2021/06/29 09:53:24;;;;;;;13.10;5.17;;;17.30;99.90;;;;;;5016568;28;20230;-86
2021/06/29 09:55:53;;;;;;;15.80;4.23;;;17.30;99.90;;;;;;5033258;28;20223;-87
2021/06/29 09:58:20;;;;;;;11.37;3.60;;;17.30;99.90;;;;;;5012212;28;20219;-89
2021/06/29 10:00:50;;;;;;;11.47;4.20;;;17.10;99.90;;;;;;5008336;28;20242;-87
2021/06/29 10:03:21;;;;;;;5.80;3.47;;;17.10;99.90;;;;;;5012922;28;20215;-87
2021/06/29 10:05:47;;;;;;;15.40;4.10;;;17.10;99.90;;;;;;5012631;28;20204;-88
2021/06/29 10:08:24;;;;;;;12.07;4.67;;;17.10;99.90;;;;;;4989416;28;20226;-91
2021/06/29 10:11:04;;;;;;;11.20;3.83;;;17.10;99.90;;;;;;5013863;28;20219;-86
2021/06/29 10:13:35;;;;;;;10.47;3.93;;;17.10;99.90;;;;;;5013367;28;20219;-89
2021/06/29 10:16:05;;;;;;;10.67;3.70;;;17.10;99.90;;;;;;5029560;28;20230;-88
2021/06/29 10:18:35;;;;;;;8.17;3.57;;;17.20;99.90;;;;;;5014149;28;20219;-91
2021/06/29 10:21:04;;;;;;;15.20;5.23;;;17.00;99.90;;;;;;4981886;28;20191;-87
2021/06/29 10:23:30;;;;;;;10.30;4.73;;;17.00;99.90;;;;;;5027920;28;20179;-86
2021/06/29 10:25:56;;;;;;;7.70;4.20;;;16.90;99.90;;;;;;5005971;28;20264;-86
2021/06/29 10:28:23;;;;;;;9.70;3.80;;;17.00;99.90;;;;;;5008669;28;20759;-88
2021/06/29 10:30:49;;;;;;;13.20;4.77;;;16.90;99.90;;;;;;4993927;28;20217;-86
2021/06/29 10:33:16;;;;;;;10.93;4.40;;;17.00;99.90;;;;;;5015422;28;20219;-87
2021/06/29 10:35:42;;;;;;;12.73;4.43;;;17.00;99.90;;;;;;5029663;28;20187;-87
2021/06/29 10:38:10;;;;;;;11.87;4.33;;;17.10;99.90;;;;;;5013231;28;20276;-88
2021/06/29 10:40:36;;;;;;;12.97;4.93;;;17.00;99.90;;;;;;5015333;28;20207;-89
2021/06/29 10:43:02;;;;;;;10.07;4.50;;;17.00;99.90;;;;;;5011874;28;20215;-87
2021/06/29 10:45:36;;;;;;;13.97;5.03;;;16.90;99.90;;;;;;5013852;28;20235;-86
2021/06/29 10:48:21;;;;;;;10.17;4.60;;;16.90;99.90;;;;;;5013385;28;20190;-87
2021/06/29 10:50:49;;;;;;;14.10;5.17;;;16.90;99.90;;;;;;5012536;28;20282;-85
2021/06/29 10:53:35;;;;;;;14.93;5.70;;;16.70;99.90;;;;;;5015527;28;20334;-86
2021/06/29 10:56:06;;;;;;;8.53;3.63;;;16.80;99.90;;;;;;4998668;28;20238;-89
2021/06/29 10:58:37;;;;;;;15.93;4.53;;;16.70;99.90;;;;;;4996619;28;20242;-87
2021/06/29 11:01:22;;;;;;;10.77;4.90;;;16.80;99.90;;;;;;5011673;28;20701;-86
2021/06/29 11:03:49;;;;;;;10.90;4.30;;;16.80;99.90;;;;;;5014453;28;20330;-89
2021/06/29 11:06:41;;;;;;;12.03;4.60;;;16.70;99.90;;;;;;5028117;28;20231;-86
2021/06/29 11:09:07;;;;;;;9.47;4.47;;;16.70;99.90;;;;;;5014113;28;20222;-89
2021/06/29 11:11:33;;;;;;;9.23;4.13;;;16.80;99.90;;;;;;4981574;28;20198;-86
2021/06/29 11:13:59;;;;;;;15.87;5.17;;;16.90;99.90;;;;;;4995521;28;20302;-88
2021/06/29 11:16:52;;;;;;;11.27;5.80;;;16.90;99.90;;;;;;5014897;28;20226;-89
2021/06/29 11:19:19;;;;;;;11.23;4.20;;;17.00;99.90;;;;;;5029222;28;20682;-88
2021/06/29 11:21:45;;;;;;;16.77;5.73;;;16.80;99.90;;;;;;5013989;28;20277;-88
2021/06/29 11:24:40;;;;;;;22.60;4.60;;;16.80;99.90;;;;;;4997396;28;20634;-90
2021/06/29 11:27:06;;;;;;;8.30;4.50;;;16.70;99.90;;;;;;5028653;28;20235;-89
2021/06/29 11:29:44;;;;;;;10.47;4.10;;;16.70;99.90;;;;;;5014295;28;20209;-87
2021/06/29 11:32:27;;;;;;;8.77;4.03;;;16.70;99.90;;;;;;5015644;28;20429;-89
2021/06/29 11:34:53;;;;;;;9.23;4.87;;;16.60;99.90;;;;;;5005578;28;20312;-90
2021/06/29 11:37:21;;;;;;;8.80;4.27;;;16.60;99.90;;;;;;5023058;28;20230;-89
2021/06/29 11:39:58;;;;;;;8.17;4.13;;;16.60;99.90;;;;;;4983739;28;20268;-90
2021/06/29 11:42:30;;;;;;;15.20;4.90;;;16.50;99.90;;;;;;5024182;28;20581;-90
2021/06/29 11:45:03;;;;;;;10.43;3.93;;;16.60;99.90;;;;;;5013010;28;20202;-90
2021/06/29 11:47:36;;;;;;;6.00;3.90;;;16.60;99.90;;;;;;5022278;28;20210;-89
2021/06/29 11:50:14;;;;;;;12.73;4.33;;;16.70;99.90;;;;;;5009875;28;20435;-89
2021/06/29 11:52:43;;;;;;;7.53;3.83;;;16.60;99.90;;;;;;5023752;28;20239;-87
2021/06/29 11:55:18;;;;;;;7.30;3.93;;;16.50;99.90;;;;;;4995657;28;20272;-88
2021/06/29 11:57:53;;;;;;;8.20;3.07;;;16.60;99.90;;;;;;5028214;28;20209;-91
2021/06/29 12:00:31;;;;;;;11.70;4.40;;;16.50;99.90;;;;;;5029046;28;20218;-90
2021/06/29 12:03:08;;;;;;;5.27;3.37;;;16.40;99.90;;;;;;5014057;28;20171;-91
2021/06/29 12:05:36;;;;;;;8.07;2.73;;;16.50;99.90;;;;;;5027644;28;20211;-90
2021/06/29 12:08:12;;;;;;;12.83;4.80;;;16.50;99.90;;;;;;5009567;28;20277;-92
2021/06/29 12:10:44;;;;;;;8.37;3.20;;;16.50;99.90;;;;;;5010300;28;20215;-91
2021/06/29 12:13:18;;;;;;;4.10;2.53;;;16.50;99.90;;;;;;5025908;28;20233;-93
2021/06/29 12:15:52;;;;;;;6.47;2.90;;;16.40;99.90;;;;;;5009592;28;20215;-88
2021/06/29 12:18:20;;;;;;;7.77;2.47;;;16.40;99.90;;;;;;5029359;28;20218;-87
2021/06/29 12:20:55;;;;;;;4.40;3.33;;;16.30;99.90;;;;;;5009909;28;20243;-90
2021/06/29 12:23:26;;;;;;;11.10;4.37;;;16.40;99.90;;;;;;5012811;28;20237;-91
2021/06/29 12:25:54;;;;;;;8.47;2.53;;;16.30;99.90;;;;;;5009867;28;20326;-91
2021/06/29 12:28:23;;;;;;;9.03;3.37;;;16.30;99.90;;;;;;5010250;28;21239;-91
2021/06/29 12:30:57;;;;;;;6.60;2.73;;;16.40;99.90;;;;;;5013939;28;20230;-89
2021/06/29 12:33:29;;;;;;;7.07;3.00;;;16.40;99.90;;;;;;5011660;28;20837;-92
2021/06/29 12:36:07;;;;;;;3.13;2.23;;;16.30;99.90;;;;;;5009260;28;20195;-91
2021/06/29 12:38:35;;;;;;;4.87;2.73;;;16.40;99.90;;;;;;4982547;28;21187;-89
2021/06/29 12:41:13;;;;;;;3.80;1.90;;;16.40;99.90;;;;;;5037223;28;20823;-89
2021/06/29 12:43:47;;;;;;;4.87;2.87;;;16.40;99.90;;;;;;5010300;28;20223;-87
2021/06/29 12:46:22;;;;;;;7.40;3.70;;;16.40;99.90;;;;;;5013146;28;20273;-91
2021/06/29 12:49:06;;;;;;;9.00;2.70;;;16.40;99.90;;;;;;4986384;28;20847;-92
2021/06/29 12:51:50;;;;;;;3.60;2.80;;;16.50;99.90;;;;;;5032205;28;22663;-91
2021/06/29 12:54:18;;;;;;;5.93;2.70;;;16.40;99.90;;;;;;5011779;28;20322;-88